Weather History for Brady, TX

Change the Weather History Date:

Wednesday, April 30, 2014

  Actual Average (KJCT) Record (KJCT)
Temperature  
Mean Temperature 60 °F -  
Max Temperature 69 °F 82 °F 113 °F (2013)
Min Temperature 51 °F 55 °F 45 °F (2006)
Degree Days  
Heating Degree Days 5    
Growing Degree Days 10 (Base 50)    
Moisture  
Dew Point 28 °F    
Average Humidity 31    
Maximum Humidity 41    
Minimum Humidity 21    
Precipitation  
Precipitation 0.00 in - - ()
Sea Level Pressure  
Sea Level Pressure 30.14 in    
Wind  
Wind Speed 11 mph (NNW)    
Max Wind Speed 23 mph    
Max Gust Speed 22 mph    
Visibility 10 miles    
Events      
Averages and records for this station are not official NWS values.
T = Trace of Precipitation, MM = Missing Value Source: NWS Daily Summary

Daily Weather History Graph

Daily Weather History Graph

Search for Another Location

Airport:

Trip Planner

Search our weather history database for the weather conditions in past years. The results will help you decide how hot, cold, wet, or windy it might be!

Date:

Astronomy

Apr. 30, 2014 Rise Set
Actual Time 6:53 AM CDT 8:15 PM CDT
Civil Twilight 6:27 AM CDT 8:41 PM CDT
Nautical Twilight 5:57 AM CDT 9:12 PM CDT
Astronomical Twilight 5:25 AM CDT 9:44 PM CDT
Moon 7:58 AM CDT (4/30) 9:53 PM CDT (4/30)
Length of Visible Light 14h 13m
Length of Day
13h 22m
New Moon, 2% of the Moon is Illuminated
Apr 30
New Moon
May 6
First Quarter
May 14
Full
May 21
Last Quarter
May 28
New

Hourly Weather History & Observations

Time (CDT) Temp. Dew Point Humidity Pressure Visibility Wind Dir Wind Speed Gust Speed Precip Events Conditions
12:55 AM 55.4 °F 28.4 °F 36% 30.05 in 10.0 mi North 3.5 mph - N/A   Clear
1:15 AM 55.4 °F 28.4 °F 36% 30.06 in 10.0 mi NW 4.6 mph - N/A   Scattered Clouds
1:35 AM 55.4 °F 28.4 °F 36% 30.07 in 10.0 mi WNW 4.6 mph - N/A   Overcast
1:55 AM 53.6 °F 28.4 °F 38% 30.07 in 10.0 mi West 4.6 mph - N/A   Overcast
2:15 AM 55.4 °F 28.4 °F 36% 30.08 in 10.0 mi West 5.8 mph - N/A   Overcast
2:55 AM 55.4 °F 28.4 °F 36% 30.08 in 10.0 mi NW 6.9 mph - N/A   Unknown
3:15 AM 57.2 °F 28.4 °F 33% 30.08 in 9.0 mi NW 11.5 mph - N/A   Clear
3:35 AM 57.2 °F 28.4 °F 33% 30.09 in 8.0 mi NW 12.7 mph - N/A   Unknown
3:55 AM 57.2 °F 26.6 °F 31% 30.09 in 9.0 mi NNW 16.1 mph - N/A   Unknown
4:15 AM 57.2 °F 26.6 °F 31% 30.08 in 10.0 mi NNW 15.0 mph - N/A   Clear
4:35 AM 55.4 °F 26.6 °F 33% 30.08 in 10.0 mi NNW 13.8 mph - N/A   Clear
4:55 AM 55.4 °F 26.6 °F 33% 30.09 in 10.0 mi NNW 15.0 mph - N/A   Clear
5:15 AM 55.4 °F 26.6 °F 33% 30.10 in 10.0 mi NNW 11.5 mph - N/A   Clear
5:35 AM 53.6 °F 26.6 °F 35% 30.11 in 10.0 mi NNW 10.4 mph - N/A   Clear
5:55 AM 53.6 °F 26.6 °F 35% 30.11 in 10.0 mi NNW 10.4 mph - N/A   Clear
6:15 AM 53.6 °F 26.6 °F 35% 30.12 in 10.0 mi NNW 11.5 mph - N/A   Clear
6:35 AM 53.6 °F 26.6 °F 35% 30.13 in 10.0 mi NNW 12.7 mph - N/A   Clear
6:55 AM 53.6 °F 26.6 °F 35% 30.13 in 10.0 mi North 16.1 mph - N/A   Clear
7:15 AM 53.6 °F 28.4 °F 38% 30.14 in 10.0 mi NNW 18.4 mph - N/A   Clear
7:35 AM 51.8 °F 28.4 °F 41% 30.15 in 10.0 mi North 19.6 mph - N/A   Clear
7:55 AM 51.8 °F 28.4 °F 41% 30.16 in 10.0 mi North 19.6 mph - N/A   Clear
8:15 AM 51.8 °F 28.4 °F 41% 30.16 in 10.0 mi North 23.0 mph - N/A   Clear
8:35 AM 53.6 °F 28.4 °F 38% 30.16 in 10.0 mi North 23.0 mph - N/A   Clear
8:55 AM 53.6 °F 30.2 °F 41% 30.17 in 10.0 mi North 16.1 mph - N/A   Clear
9:15 AM 55.4 °F 30.2 °F 38% 30.18 in 10.0 mi North 19.6 mph - N/A   Clear
9:35 AM 55.4 °F 30.2 °F 38% 30.19 in 10.0 mi North 16.1 mph - N/A   Clear
9:55 AM 57.2 °F 30.2 °F 36% 30.19 in 10.0 mi North 18.4 mph - N/A   Clear
10:15 AM 57.2 °F 30.2 °F 36% 30.20 in 10.0 mi North 19.6 mph - N/A   Clear
10:35 AM 59.0 °F 30.2 °F 34% 30.20 in 10.0 mi NNW 13.8 mph - N/A   Clear
10:55 AM 60.8 °F 30.2 °F 31% 30.20 in 10.0 mi NNW 15.0 mph - N/A   Clear
11:15 AM 60.8 °F 30.2 °F 31% 30.20 in 10.0 mi North 16.1 mph - N/A   Clear
11:35 AM 60.8 °F 30.2 °F 31% 30.21 in 10.0 mi NNW 16.1 mph - N/A   Clear
11:55 AM 60.8 °F 30.2 °F 31% 30.21 in 10.0 mi North 13.8 mph - N/A   Clear
12:15 PM 62.6 °F 32.0 °F 32% 30.21 in 10.0 mi NNE 13.8 mph - N/A   Clear
12:35 PM 62.6 °F 32.0 °F 32% 30.20 in 10.0 mi North 10.4 mph - N/A   Clear
12:55 PM 62.6 °F 32.0 °F 32% 30.19 in 10.0 mi North 10.4 mph - N/A   Clear
1:15 PM 64.4 °F 32.0 °F 30% 30.18 in 10.0 mi NNW 15.0 mph - N/A   Clear
1:35 PM 64.4 °F 33.8 °F 32% 30.17 in 10.0 mi NW 12.7 mph - N/A   Clear
1:55 PM 66.2 °F 32.0 °F 28% 30.16 in 10.0 mi NNW 19.6 mph - N/A   Clear
2:15 PM 66.2 °F 30.2 °F 26% 30.16 in 10.0 mi North 15.0 mph - N/A   Clear
2:55 PM 68.0 °F 32.0 °F 26% 30.15 in 10.0 mi North 10.4 mph - N/A   Clear
3:15 PM 69.8 °F 32.0 °F 25% 30.14 in 10.0 mi NW 9.2 mph - N/A   Clear
3:35 PM 68.0 °F 32.0 °F 26% 30.13 in 10.0 mi NNW 9.2 mph 19.6 mph N/A   Clear
3:55 PM 69.8 °F 30.2 °F 23% 30.13 in 10.0 mi North 10.4 mph - N/A   Clear
4:15 PM 69.8 °F 30.2 °F 23% 30.12 in 10.0 mi NNW 12.7 mph - N/A   Clear
4:35 PM 69.8 °F 30.2 °F 23% 30.11 in 10.0 mi NNW 15.0 mph - N/A   Clear
5:35 PM 69.8 °F 30.2 °F 23% 30.09 in 10.0 mi North 15.0 mph - N/A   Clear
5:55 PM 69.8 °F 28.4 °F 21% 30.09 in 10.0 mi NNW 11.5 mph 21.9 mph N/A   Clear
6:15 PM 69.8 °F 28.4 °F 21% 30.09 in 10.0 mi North 11.5 mph - N/A   Clear
6:35 PM 69.8 °F 28.4 °F 21% 30.09 in 10.0 mi North 12.7 mph - N/A   Clear
6:55 PM 68.0 °F 28.4 °F 23% 30.09 in 10.0 mi NNW 12.7 mph - N/A   Clear
7:15 PM 66.2 °F 26.6 °F 23% 30.09 in 10.0 mi North 10.4 mph - N/A   Clear
7:35 PM 66.2 °F 26.6 °F 23% 30.10 in 10.0 mi North 9.2 mph - N/A   Clear
7:55 PM 64.4 °F 26.6 °F 24% 30.10 in 10.0 mi North 9.2 mph - N/A   Clear
8:15 PM 62.6 °F 26.6 °F 26% 30.11 in 10.0 mi North 8.1 mph - N/A   Clear
8:35 PM 60.8 °F 26.6 °F 27% 30.12 in 10.0 mi North 5.8 mph - N/A   Clear
9:15 PM 57.2 °F 24.8 °F 29% 30.14 in 10.0 mi North 5.8 mph - N/A   Clear
9:35 PM 55.4 °F 24.8 °F 31% 30.15 in 10.0 mi North 5.8 mph - N/A   Clear
9:55 PM 55.4 °F 24.8 °F 31% 30.16 in 10.0 mi NE 6.9 mph - N/A   Clear
10:15 PM 55.4 °F 24.8 °F 31% 30.16 in 10.0 mi NNE 8.1 mph - N/A   Clear
10:35 PM 55.4 °F 24.8 °F 31% 30.18 in 10.0 mi NNE 8.1 mph - N/A   Clear
10:55 PM 55.4 °F 24.8 °F 31% 30.19 in 10.0 mi NE 5.8 mph - N/A   Clear
11:15 PM 53.6 °F 24.8 °F 33% 30.19 in 10.0 mi NE 6.9 mph - N/A   Clear
11:35 PM 55.4 °F 24.8 °F 31% 30.19 in 10.0 mi NNE 8.1 mph - N/A   Clear
11:55 PM 55.4 °F 24.8 °F 31% 30.19 in 10.0 mi NNE 8.1 mph - N/A   Clear